sensor_id;sensor_type;location;lat;lon;timestamp;temperature;humidity
43320;DHT22;28914;48.722;9.332;2023-05-10T00:02:23;18.50;84.60
43320;DHT22;28914;48.722;9.332;2023-05-10T00:07:43;18.50;84.80
43320;DHT22;28914;48.722;9.332;2023-05-10T00:13:04;18.40;84.60
43320;DHT22;28914;48.722;9.332;2023-05-10T00:18:23;18.50;84.60
43320;DHT22;28914;48.722;9.332;2023-05-10T00:23:42;18.40;84.60
43320;DHT22;28914;48.722;9.332;2023-05-10T00:29:01;18.40;84.80
43320;DHT22;28914;48.722;9.332;2023-05-10T00:34:20;18.40;85.50
43320;DHT22;28914;48.722;9.332;2023-05-10T00:39:40;18.40;84.80
43320;DHT22;28914;48.722;9.332;2023-05-10T00:44:59;18.40;84.80
43320;DHT22;28914;48.722;9.332;2023-05-10T00:50:19;18.40;84.60
43320;DHT22;28914;48.722;9.332;2023-05-10T00:55:38;18.30;84.80
43320;DHT22;28914;48.722;9.332;2023-05-10T01:00:58;18.30;84.80
43320;DHT22;28914;48.722;9.332;2023-05-10T01:06:19;18.30;84.70
43320;DHT22;28914;48.722;9.332;2023-05-10T01:11:38;18.20;84.50
43320;DHT22;28914;48.722;9.332;2023-05-10T01:16:59;18.20;84.50
43320;DHT22;28914;48.722;9.332;2023-05-10T01:34:16;18.00;84.80
43320;DHT22;28914;48.722;9.332;2023-05-10T01:39:58;17.90;84.50
43320;DHT22;28914;48.722;9.332;2023-05-10T01:45:36;17.80;84.60
43320;DHT22;28914;48.722;9.332;2023-05-10T01:50:57;17.70;84.70
43320;DHT22;28914;48.722;9.332;2023-05-10T01:56:19;17.60;84.40
43320;DHT22;28914;48.722;9.332;2023-05-10T02:01:42;17.60;84.50
43320;DHT22;28914;48.722;9.332;2023-05-10T02:07:02;17.50;84.60
43320;DHT22;28914;48.722;9.332;2023-05-10T02:12:24;17.50;84.80
43320;DHT22;28914;48.722;9.332;2023-05-10T02:17:46;17.40;85.00
43320;DHT22;28914;48.722;9.332;2023-05-10T02:23:06;17.40;85.00
43320;DHT22;28914;48.722;9.332;2023-05-10T02:28:27;17.30;85.90
43320;DHT22;28914;48.722;9.332;2023-05-10T02:33:47;17.30;85.20
43320;DHT22;28914;48.722;9.332;2023-05-10T02:39:07;17.20;85.30
43320;DHT22;28914;48.722;9.332;2023-05-10T02:44:29;17.20;85.30
43320;DHT22;28914;48.722;9.332;2023-05-10T02:49:49;17.10;85.40
43320;DHT22;28914;48.722;9.332;2023-05-10T02:55:09;17.00;85.40
43320;DHT22;28914;48.722;9.332;2023-05-10T03:00:30;17.00;85.50
43320;DHT22;28914;48.722;9.332;2023-05-10T03:05:50;16.90;85.70
43320;DHT22;28914;48.722;9.332;2023-05-10T03:11:14;16.90;85.90
43320;DHT22;28914;48.722;9.332;2023-05-10T03:16:45;16.90;86.00
43320;DHT22;28914;48.722;9.332;2023-05-10T03:22:10;16.90;86.50
43320;DHT22;28914;48.722;9.332;2023-05-10T03:27:31;16.90;86.50
43320;DHT22;28914;48.722;9.332;2023-05-10T03:32:50;16.90;86.40
43320;DHT22;28914;48.722;9.332;2023-05-10T03:38:09;16.80;86.50
43320;DHT22;28914;48.722;9.332;2023-05-10T03:43:29;16.80;87.30
43320;DHT22;28914;48.722;9.332;2023-05-10T03:48:48;16.80;86.70
43320;DHT22;28914;48.722;9.332;2023-05-10T03:54:07;16.80;86.80
43320;DHT22;28914;48.722;9.332;2023-05-10T03:59:26;16.80;86.80
43320;DHT22;28914;48.722;9.332;2023-05-10T04:04:46;16.90;87.00
43320;DHT22;28914;48.722;9.332;2023-05-10T04:10:05;16.90;87.00
43320;DHT22;28914;48.722;9.332;2023-05-10T04:15:25;16.90;87.20
43320;DHT22;28914;48.722;9.332;2023-05-10T04:20:44;16.90;87.30
43320;DHT22;28914;48.722;9.332;2023-05-10T04:26:03;17.00;87.50
43320;DHT22;28914;48.722;9.332;2023-05-10T04:31:23;17.00;87.40
43320;DHT22;28914;48.722;9.332;2023-05-10T04:36:42;17.00;87.50
43320;DHT22;28914;48.722;9.332;2023-05-10T04:42:02;17.00;87.50
43320;DHT22;28914;48.722;9.332;2023-05-10T04:47:22;17.10;87.50
43320;DHT22;28914;48.722;9.332;2023-05-10T04:52:41;17.10;87.40
43320;DHT22;28914;48.722;9.332;2023-05-10T04:58:00;17.10;87.20
43320;DHT22;28914;48.722;9.332;2023-05-10T05:03:19;17.30;87.50
43320;DHT22;28914;48.722;9.332;2023-05-10T05:08:38;17.30;87.60
43320;DHT22;28914;48.722;9.332;2023-05-10T05:13:57;17.40;88.70
43320;DHT22;28914;48.722;9.332;2023-05-10T05:19:18;17.50;87.70
43320;DHT22;28914;48.722;9.332;2023-05-10T05:24:37;17.60;87.60
43320;DHT22;28914;48.722;9.332;2023-05-10T05:29:57;17.70;87.80
43320;DHT22;28914;48.722;9.332;2023-05-10T05:35:16;17.90;87.40
43320;DHT22;28914;48.722;9.332;2023-05-10T05:40:35;18.00;86.70
43320;DHT22;28914;48.722;9.332;2023-05-10T05:45:54;18.00;86.10
43320;DHT22;28914;48.722;9.332;2023-05-10T05:51:14;18.10;86.10
43320;DHT22;28914;48.722;9.332;2023-05-10T05:56:33;18.10;86.00
43320;DHT22;28914;48.722;9.332;2023-05-10T06:01:53;18.20;85.70
43320;DHT22;28914;48.722;9.332;2023-05-10T06:07:12;18.30;85.50
43320;DHT22;28914;48.722;9.332;2023-05-10T06:12:31;18.30;86.00
43320;DHT22;28914;48.722;9.332;2023-05-10T06:17:50;18.30;85.50
43320;DHT22;28914;48.722;9.332;2023-05-10T06:23:10;18.30;85.50
43320;DHT22;28914;48.722;9.332;2023-05-10T06:28:29;18.40;85.30
43320;DHT22;28914;48.722;9.332;2023-05-10T06:33:50;18.40;85.50
43320;DHT22;28914;48.722;9.332;2023-05-10T06:39:09;18.50;85.30
43320;DHT22;28914;48.722;9.332;2023-05-10T06:44:30;18.50;84.80
43320;DHT22;28914;48.722;9.332;2023-05-10T06:49:49;18.60;84.10
43320;DHT22;28914;48.722;9.332;2023-05-10T06:55:09;18.60;84.40
43320;DHT22;28914;48.722;9.332;2023-05-10T07:00:28;18.70;84.60
43320;DHT22;28914;48.722;9.332;2023-05-10T07:05:47;18.70;84.40
43320;DHT22;28914;48.722;9.332;2023-05-10T07:11:06;18.80;83.80
43320;DHT22;28914;48.722;9.332;2023-05-10T07:16:26;18.80;83.90
43320;DHT22;28914;48.722;9.332;2023-05-10T07:21:45;18.80;83.30
43320;DHT22;28914;48.722;9.332;2023-05-10T07:27:04;18.70;83.00
43320;DHT22;28914;48.722;9.332;2023-05-10T07:32:23;18.70;83.60
43320;DHT22;28914;48.722;9.332;2023-05-10T07:37:42;18.70;83.90
43320;DHT22;28914;48.722;9.332;2023-05-10T07:43:02;18.80;83.60
43320;DHT22;28914;48.722;9.332;2023-05-10T07:48:21;18.90;83.80
43320;DHT22;28914;48.722;9.332;2023-05-10T07:53:40;19.10;84.00
43320;DHT22;28914;48.722;9.332;2023-05-10T07:58:59;19.40;82.90
43320;DHT22;28914;48.722;9.332;2023-05-10T08:04:18;19.60;82.10
43320;DHT22;28914;48.722;9.332;2023-05-10T08:09:37;19.80;81.90
43320;DHT22;28914;48.722;9.332;2023-05-10T08:14:57;19.90;81.70
43320;DHT22;28914;48.722;9.332;2023-05-10T08:20:16;20.00;80.40
43320;DHT22;28914;48.722;9.332;2023-05-10T08:25:37;20.00;80.10
43320;DHT22;28914;48.722;9.332;2023-05-10T08:30:57;20.00;79.30
43320;DHT22;28914;48.722;9.332;2023-05-10T08:36:16;20.10;80.00
43320;DHT22;28914;48.722;9.332;2023-05-10T08:41:44;20.10;80.20
43320;DHT22;28914;48.722;9.332;2023-05-10T08:47:06;20.20;79.90
43320;DHT22;28914;48.722;9.332;2023-05-10T08:52:30;20.30;80.10
43320;DHT22;28914;48.722;9.332;2023-05-10T08:57:49;20.50;79.60
43320;DHT22;28914;48.722;9.332;2023-05-10T09:03:09;20.70;79.10
43320;DHT22;28914;48.722;9.332;2023-05-10T09:08:28;21.00;79.70
43320;DHT22;28914;48.722;9.332;2023-05-10T09:13:50;21.20;78.70
43320;DHT22;28914;48.722;9.332;2023-05-10T09:19:11;21.40;78.20
43320;DHT22;28914;48.722;9.332;2023-05-10T09:24:30;21.60;75.10
43320;DHT22;28914;48.722;9.332;2023-05-10T09:29:50;21.80;72.60
43320;DHT22;28914;48.722;9.332;2023-05-10T09:35:15;21.80;73.20
43320;DHT22;28914;48.722;9.332;2023-05-10T09:40:34;21.60;73.30
43320;DHT22;28914;48.722;9.332;2023-05-10T09:45:54;21.40;74.20
43320;DHT22;28914;48.722;9.332;2023-05-10T09:51:25;21.30;73.80
43320;DHT22;28914;48.722;9.332;2023-05-10T09:56:46;21.20;75.00
43320;DHT22;28914;48.722;9.332;2023-05-10T10:02:05;21.00;74.70
43320;DHT22;28914;48.722;9.332;2023-05-10T10:07:26;20.80;75.00
43320;DHT22;28914;48.722;9.332;2023-05-10T10:12:45;20.70;75.80
43320;DHT22;28914;48.722;9.332;2023-05-10T10:18:05;20.70;76.60
43320;DHT22;28914;48.722;9.332;2023-05-10T10:23:24;20.80;77.10
43320;DHT22;28914;48.722;9.332;2023-05-10T10:34:28;21.60;77.40
43320;DHT22;28914;48.722;9.332;2023-05-10T10:39:49;22.30;77.50
43320;DHT22;28914;48.722;9.332;2023-05-10T10:45:12;22.90;75.60
43320;DHT22;28914;48.722;9.332;2023-05-10T10:50:43;23.30;73.20
43320;DHT22;28914;48.722;9.332;2023-05-10T10:56:10;23.50;71.30
43320;DHT22;28914;48.722;9.332;2023-05-10T11:01:34;23.50;70.00
43320;DHT22;28914;48.722;9.332;2023-05-10T11:07:16;23.30;68.50
43320;DHT22;28914;48.722;9.332;2023-05-10T11:12:58;23.00;68.20
43320;DHT22;28914;48.722;9.332;2023-05-10T11:18:29;22.70;68.90
43320;DHT22;28914;48.722;9.332;2023-05-10T11:23:51;22.50;68.70
43320;DHT22;28914;48.722;9.332;2023-05-10T11:29:12;22.30;68.70
43320;DHT22;28914;48.722;9.332;2023-05-10T11:34:32;22.00;64.60
43320;DHT22;28914;48.722;9.332;2023-05-10T11:39:54;21.50;65.70
43320;DHT22;28914;48.722;9.332;2023-05-10T11:45:13;21.10;66.70
43320;DHT22;28914;48.722;9.332;2023-05-10T11:50:33;20.70;66.80
43320;DHT22;28914;48.722;9.332;2023-05-10T11:55:52;20.50;68.30
43320;DHT22;28914;48.722;9.332;2023-05-10T12:01:11;20.30;69.20
43320;DHT22;28914;48.722;9.332;2023-05-10T12:06:32;20.10;69.20
43320;DHT22;28914;48.722;9.332;2023-05-10T12:11:56;19.90;69.10
43320;DHT22;28914;48.722;9.332;2023-05-10T12:17:16;19.80;69.80
43320;DHT22;28914;48.722;9.332;2023-05-10T12:22:35;19.60;70.70
43320;DHT22;28914;48.722;9.332;2023-05-10T12:27:56;19.50;71.50
43320;DHT22;28914;48.722;9.332;2023-05-10T12:33:17;19.50;72.60
43320;DHT22;28914;48.722;9.332;2023-05-10T12:38:41;19.60;73.60
43320;DHT22;28914;48.722;9.332;2023-05-10T12:44:02;19.70;74.60
43320;DHT22;28914;48.722;9.332;2023-05-10T12:49:21;19.90;74.40
43320;DHT22;28914;48.722;9.332;2023-05-10T12:54:40;20.20;73.80
43320;DHT22;28914;48.722;9.332;2023-05-10T12:59:59;20.40;72.50
43320;DHT22;28914;48.722;9.332;2023-05-10T13:05:18;20.40;72.20
43320;DHT22;28914;48.722;9.332;2023-05-10T13:10:38;20.30;72.00
43320;DHT22;28914;48.722;9.332;2023-05-10T13:15:57;20.10;72.20
43320;DHT22;28914;48.722;9.332;2023-05-10T13:21:16;19.90;72.70
43320;DHT22;28914;48.722;9.332;2023-05-10T13:26:35;19.70;72.90
43320;DHT22;28914;48.722;9.332;2023-05-10T13:31:55;19.50;73.40
43320;DHT22;28914;48.722;9.332;2023-05-10T13:37:14;19.40;74.20
43320;DHT22;28914;48.722;9.332;2023-05-10T13:42:33;19.30;75.10
43320;DHT22;28914;48.722;9.332;2023-05-10T13:47:52;19.40;75.20
43320;DHT22;28914;48.722;9.332;2023-05-10T13:53:11;19.50;75.50
43320;DHT22;28914;48.722;9.332;2023-05-10T13:58:31;19.80;75.80
43320;DHT22;28914;48.722;9.332;2023-05-10T14:03:50;20.10;74.50
43320;DHT22;28914;48.722;9.332;2023-05-10T14:09:10;20.30;74.50
43320;DHT22;28914;48.722;9.332;2023-05-10T14:14:29;20.40;72.40
43320;DHT22;28914;48.722;9.332;2023-05-10T14:19:48;20.50;72.50
43320;DHT22;28914;48.722;9.332;2023-05-10T14:25:08;20.50;72.10
43320;DHT22;28914;48.722;9.332;2023-05-10T14:30:27;20.50;71.40
43320;DHT22;28914;48.722;9.332;2023-05-10T14:35:47;20.50;71.80
43320;DHT22;28914;48.722;9.332;2023-05-10T14:41:06;20.60;73.10
43320;DHT22;28914;48.722;9.332;2023-05-10T14:46:25;20.70;73.10
43320;DHT22;28914;48.722;9.332;2023-05-10T14:51:45;20.90;72.60
43320;DHT22;28914;48.722;9.332;2023-05-10T14:57:04;21.00;71.70
43320;DHT22;28914;48.722;9.332;2023-05-10T15:02:24;21.00;69.10
43320;DHT22;28914;48.722;9.332;2023-05-10T15:07:43;21.00;70.30
43320;DHT22;28914;48.722;9.332;2023-05-10T15:13:03;21.00;69.50
43320;DHT22;28914;48.722;9.332;2023-05-10T15:18:22;21.00;69.10
43320;DHT22;28914;48.722;9.332;2023-05-10T15:23:41;20.90;68.60
43320;DHT22;28914;48.722;9.332;2023-05-10T15:29:01;20.80;68.50
43320;DHT22;28914;48.722;9.332;2023-05-10T15:34:20;20.80;68.80
43320;DHT22;28914;48.722;9.332;2023-05-10T15:39:39;20.70;68.10
43320;DHT22;28914;48.722;9.332;2023-05-10T15:44:58;20.70;68.30
43320;DHT22;28914;48.722;9.332;2023-05-10T15:50:17;20.60;68.00
43320;DHT22;28914;48.722;9.332;2023-05-10T15:55:37;20.60;67.00
43320;DHT22;28914;48.722;9.332;2023-05-10T16:00:56;20.50;68.30
43320;DHT22;28914;48.722;9.332;2023-05-10T16:06:15;20.50;69.30
43320;DHT22;28914;48.722;9.332;2023-05-10T16:11:35;20.50;69.90
43320;DHT22;28914;48.722;9.332;2023-05-10T16:16:54;20.60;70.10
43320;DHT22;28914;48.722;9.332;2023-05-10T16:22:14;20.60;70.30
43320;DHT22;28914;48.722;9.332;2023-05-10T16:27:33;20.60;71.00
43320;DHT22;28914;48.722;9.332;2023-05-10T16:32:53;20.70;71.30
43320;DHT22;28914;48.722;9.332;2023-05-10T16:38:12;20.70;71.30
43320;DHT22;28914;48.722;9.332;2023-05-10T16:43:31;20.70;71.30
43320;DHT22;28914;48.722;9.332;2023-05-10T16:48:50;20.70;70.30
43320;DHT22;28914;48.722;9.332;2023-05-10T16:54:09;20.70;70.70
43320;DHT22;28914;48.722;9.332;2023-05-10T16:59:29;20.60;71.00
43320;DHT22;28914;48.722;9.332;2023-05-10T17:04:48;20.50;71.00
43320;DHT22;28914;48.722;9.332;2023-05-10T17:10:08;20.50;71.30
43320;DHT22;28914;48.722;9.332;2023-05-10T17:15:27;20.40;71.60
43320;DHT22;28914;48.722;9.332;2023-05-10T17:20:47;20.40;72.00
43320;DHT22;28914;48.722;9.332;2023-05-10T17:26:07;20.20;72.10
43320;DHT22;28914;48.722;9.332;2023-05-10T17:31:26;20.10;72.10
43320;DHT22;28914;48.722;9.332;2023-05-10T17:36:45;19.90;72.60
43320;DHT22;28914;48.722;9.332;2023-05-10T17:42:05;19.80;72.90
43320;DHT22;28914;48.722;9.332;2023-05-10T17:47:24;19.70;73.10
43320;DHT22;28914;48.722;9.332;2023-05-10T17:52:43;19.50;73.30
43320;DHT22;28914;48.722;9.332;2023-05-10T17:58:03;19.40;73.40
43320;DHT22;28914;48.722;9.332;2023-05-10T18:03:22;19.30;73.90
43320;DHT22;28914;48.722;9.332;2023-05-10T18:08:41;19.10;72.90
43320;DHT22;28914;48.722;9.332;2023-05-10T18:14:01;19.00;73.50
43320;DHT22;28914;48.722;9.332;2023-05-10T18:19:20;18.80;73.10
43320;DHT22;28914;48.722;9.332;2023-05-10T18:24:43;18.70;73.30
43320;DHT22;28914;48.722;9.332;2023-05-10T18:30:02;18.60;73.50
43320;DHT22;28914;48.722;9.332;2023-05-10T18:35:22;18.50;73.80
43320;DHT22;28914;48.722;9.332;2023-05-10T18:40:42;18.30;73.50
43320;DHT22;28914;48.722;9.332;2023-05-10T18:46:01;18.20;73.20
43320;DHT22;28914;48.722;9.332;2023-05-10T18:51:20;18.10;73.50
43320;DHT22;28914;48.722;9.332;2023-05-10T18:56:40;18.00;73.70
43320;DHT22;28914;48.722;9.332;2023-05-10T19:02:03;17.80;74.20
43320;DHT22;28914;48.722;9.332;2023-05-10T19:07:22;17.70;74.80
43320;DHT22;28914;48.722;9.332;2023-05-10T19:12:41;17.60;75.40
43320;DHT22;28914;48.722;9.332;2023-05-10T19:18:01;17.60;75.80
43320;DHT22;28914;48.722;9.332;2023-05-10T19:23:20;17.40;76.10
43320;DHT22;28914;48.722;9.332;2023-05-10T19:28:39;17.30;76.50
43320;DHT22;28914;48.722;9.332;2023-05-10T19:33:58;17.20;77.00
43320;DHT22;28914;48.722;9.332;2023-05-10T19:39:17;17.10;77.20
43320;DHT22;28914;48.722;9.332;2023-05-10T19:44:37;17.00;77.70
43320;DHT22;28914;48.722;9.332;2023-05-10T19:49:56;17.00;77.70
43320;DHT22;28914;48.722;9.332;2023-05-10T19:55:27;17.00;78.00
43320;DHT22;28914;48.722;9.332;2023-05-10T20:00:46;16.90;78.50
43320;DHT22;28914;48.722;9.332;2023-05-10T20:06:06;16.80;78.80
43320;DHT22;28914;48.722;9.332;2023-05-10T20:11:25;16.70;78.80
43320;DHT22;28914;48.722;9.332;2023-05-10T20:16:44;16.60;79.30
43320;DHT22;28914;48.722;9.332;2023-05-10T20:22:04;16.50;79.90
43320;DHT22;28914;48.722;9.332;2023-05-10T20:27:23;16.40;80.00
43320;DHT22;28914;48.722;9.332;2023-05-10T20:32:42;16.40;80.40
43320;DHT22;28914;48.722;9.332;2023-05-10T20:38:02;16.40;80.80
43320;DHT22;28914;48.722;9.332;2023-05-10T20:43:22;16.40;81.10
43320;DHT22;28914;48.722;9.332;2023-05-10T20:48:42;16.40;81.00
43320;DHT22;28914;48.722;9.332;2023-05-10T20:54:01;16.40;80.90
43320;DHT22;28914;48.722;9.332;2023-05-10T20:59:22;16.40;80.80
43320;DHT22;28914;48.722;9.332;2023-05-10T21:04:41;16.40;80.70
43320;DHT22;28914;48.722;9.332;2023-05-10T21:10:00;16.40;80.80
43320;DHT22;28914;48.722;9.332;2023-05-10T21:15:19;16.40;80.80
43320;DHT22;28914;48.722;9.332;2023-05-10T21:20:40;16.40;81.60
43320;DHT22;28914;48.722;9.332;2023-05-10T21:26:02;16.30;81.40
43320;DHT22;28914;48.722;9.332;2023-05-10T21:31:21;16.30;81.70
43320;DHT22;28914;48.722;9.332;2023-05-10T21:36:41;16.20;81.60
43320;DHT22;28914;48.722;9.332;2023-05-10T21:42:00;16.20;81.60
43320;DHT22;28914;48.722;9.332;2023-05-10T21:47:19;16.20;81.60
43320;DHT22;28914;48.722;9.332;2023-05-10T21:52:38;16.10;81.50
43320;DHT22;28914;48.722;9.332;2023-05-10T21:57:58;16.10;81.60
43320;DHT22;28914;48.722;9.332;2023-05-10T22:03:17;16.10;81.60
43320;DHT22;28914;48.722;9.332;2023-05-10T22:08:36;16.00;81.70
43320;DHT22;28914;48.722;9.332;2023-05-10T22:13:55;15.90;81.80
43320;DHT22;28914;48.722;9.332;2023-05-10T22:19:15;15.90;82.10
43320;DHT22;28914;48.722;9.332;2023-05-10T22:24:34;15.90;82.20
43320;DHT22;28914;48.722;9.332;2023-05-10T22:29:53;15.80;82.20
43320;DHT22;28914;48.722;9.332;2023-05-10T22:35:12;15.80;82.10
43320;DHT22;28914;48.722;9.332;2023-05-10T22:40:31;15.80;82.10
43320;DHT22;28914;48.722;9.332;2023-05-10T22:45:50;15.80;82.10
43320;DHT22;28914;48.722;9.332;2023-05-10T22:51:10;15.70;82.10
43320;DHT22;28914;48.722;9.332;2023-05-10T22:56:30;15.70;82.30
43320;DHT22;28914;48.722;9.332;2023-05-10T23:01:49;15.60;82.30
43320;DHT22;28914;48.722;9.332;2023-05-10T23:07:08;15.60;82.50
43320;DHT22;28914;48.722;9.332;2023-05-10T23:12:27;15.50;82.50
43320;DHT22;28914;48.722;9.332;2023-05-10T23:17:49;15.50;83.30
43320;DHT22;28914;48.722;9.332;2023-05-10T23:23:09;15.40;82.70
43320;DHT22;28914;48.722;9.332;2023-05-10T23:28:28;15.40;82.80
43320;DHT22;28914;48.722;9.332;2023-05-10T23:33:47;15.40;82.80
43320;DHT22;28914;48.722;9.332;2023-05-10T23:39:06;15.30;83.00
43320;DHT22;28914;48.722;9.332;2023-05-10T23:44:26;15.30;83.00
43320;DHT22;28914;48.722;9.332;2023-05-10T23:49:45;15.30;83.30
43320;DHT22;28914;48.722;9.332;2023-05-10T23:55:04;15.30;83.30
